createdAt,value
2023-03-25T00:00:25.642Z,2.01
2023-03-25T00:02:53.729Z,1.93
2023-03-25T00:05:22.772Z,1.82
2023-03-25T00:07:52.156Z,1.80
2023-03-25T00:10:20.685Z,1.71
2023-03-25T00:12:48.551Z,1.53
2023-03-25T00:15:17.948Z,1.49
2023-03-25T00:17:47.243Z,1.44
2023-03-25T00:20:15.291Z,1.41
2023-03-25T00:22:44.640Z,1.32
2023-03-25T00:25:17.438Z,1.26
2023-03-25T00:27:46.663Z,1.23
2023-03-25T00:30:16.680Z,1.10
2023-03-25T00:32:46.125Z,1.16
2023-03-25T00:35:19.806Z,1.10
2023-03-25T00:37:57.496Z,1.05
2023-03-25T00:40:25.916Z,1.04
2023-03-25T00:42:53.669Z,0.97
2023-03-25T00:45:21.532Z,0.93
2023-03-25T00:47:49.782Z,0.93
2023-03-25T00:50:19.340Z,0.93
2023-03-25T00:52:47.272Z,0.91
2023-03-25T00:55:15.656Z,0.90
2023-03-25T00:57:43.576Z,0.96
2023-03-25T01:00:15.420Z,0.93
2023-03-25T01:02:44.024Z,0.93
2023-03-25T01:05:12.231Z,0.93
2023-03-25T01:07:42.750Z,0.96
2023-03-25T01:10:11.683Z,0.93
2023-03-25T01:12:39.460Z,1.00
2023-03-25T01:15:08.771Z,0.98
2023-03-25T01:17:40.840Z,0.91
2023-03-25T01:20:10.087Z,0.89
2023-03-25T01:22:37.916Z,0.87
2023-03-25T01:25:07.608Z,0.77
2023-03-25T01:27:35.571Z,0.78
2023-03-25T01:30:03.896Z,0.73
2023-03-25T01:32:31.759Z,0.72
2023-03-25T01:35:00.396Z,0.70
2023-03-25T01:37:29.560Z,0.66
2023-03-25T01:39:57.351Z,0.71
2023-03-25T01:42:26.735Z,0.75
2023-03-25T01:45:22.412Z,0.71
2023-03-25T01:47:58.488Z,0.40
2023-03-25T01:50:29.219Z,0.68
2023-03-25T01:52:59.600Z,0.67
2023-03-25T01:55:28.434Z,0.57
2023-03-25T01:57:59.804Z,0.55
2023-03-25T02:00:27.951Z,0.53
2023-03-25T02:02:59.930Z,0.52
2023-03-25T02:05:35.971Z,0.47
2023-03-25T02:08:09.288Z,0.45
2023-03-25T02:10:38.217Z,0.46
2023-03-25T02:13:08.681Z,0.41
2023-03-25T02:16:04.609Z,0.36
2023-03-25T02:18:44.875Z,0.35
2023-03-25T02:21:46.323Z,0.37
2023-03-25T02:24:54.931Z,0.45
2023-03-25T02:27:42.078Z,0.33
2023-03-25T02:30:46.853Z,0.34
2023-03-25T02:33:48.004Z,0.29
2023-03-25T02:37:03.377Z,0.28
2023-03-25T02:39:40.647Z,0.30
2023-03-25T02:42:16.877Z,0.17
2023-03-25T02:44:53.788Z,0.24
2023-03-25T02:47:26.218Z,0.19
2023-03-25T02:49:59.374Z,0.21
2023-03-25T02:52:31.280Z,0.20
2023-03-25T02:55:04.928Z,0.21
2023-03-25T02:57:35.951Z,0.18
2023-03-25T03:00:10.700Z,0.03
2023-03-25T03:02:39.617Z,0.06
2023-03-25T03:05:23.438Z,0.06
2023-03-25T03:07:56.463Z,0.03
2023-03-25T03:10:32.366Z,-0.01
2023-03-25T03:13:13.419Z,-0.02
2023-03-25T03:15:53.041Z,-0.04
2023-03-25T03:18:34.475Z,0.02
2023-03-25T03:21:12.993Z,-0.05
2023-03-25T03:23:52.397Z,-0.05
2023-03-25T03:26:29.502Z,-0.05
2023-03-25T03:29:04.545Z,-0.13
2023-03-25T03:31:48.450Z,-0.01
2023-03-25T03:34:34.399Z,-0.05
2023-03-25T03:37:04.733Z,-0.03
2023-03-25T03:39:35.896Z,-0.06
2023-03-25T03:42:10.674Z,-0.02
2023-03-25T03:44:44.235Z,0.00
2023-03-25T03:47:15.754Z,-0.06
2023-03-25T03:49:47.949Z,-0.06
2023-03-25T03:52:18.958Z,-0.07
2023-03-25T03:54:51.114Z,-0.12
2023-03-25T03:57:25.911Z,-0.11
2023-03-25T03:59:59.404Z,-0.20
2023-03-25T04:02:35.134Z,-0.16
2023-03-25T04:05:03.756Z,-0.17
2023-03-25T04:07:39.113Z,-0.20
2023-03-25T04:10:15.745Z,-0.21
2023-03-25T04:12:47.943Z,-0.24
2023-03-25T04:15:16.964Z,-0.23
2023-03-25T04:17:45.237Z,-0.20
2023-03-25T04:20:16.399Z,-0.18
2023-03-25T04:22:45.829Z,-0.18
2023-03-25T04:25:14.831Z,-0.28
2023-03-25T04:27:49.019Z,-0.23
2023-03-25T04:30:19.229Z,-0.45
2023-03-25T04:32:47.998Z,-0.22
2023-03-25T04:35:16.960Z,-0.23
2023-03-25T04:37:45.743Z,-0.20
2023-03-25T04:40:16.345Z,-0.22
2023-03-25T04:42:46.478Z,-0.20
2023-03-25T04:45:16.913Z,-0.15
2023-03-25T04:47:48.733Z,-0.09
2023-03-25T04:50:22.188Z,-0.08
2023-03-25T04:52:50.516Z,-0.09
2023-03-25T04:55:19.557Z,-0.19
2023-03-25T04:57:48.333Z,-0.06
2023-03-25T05:00:18.153Z,-0.08
2023-03-25T05:02:48.669Z,-0.10
2023-03-25T05:05:18.602Z,-0.11
2023-03-25T05:07:47.290Z,-0.22
2023-03-25T05:10:15.380Z,-0.16
2023-03-25T05:12:43.320Z,-0.19
2023-03-25T05:15:12.251Z,-0.25
2023-03-25T05:17:40.122Z,-0.27
2023-03-25T05:20:10.654Z,-0.31
2023-03-25T05:22:39.355Z,-0.49
2023-03-25T05:25:08.011Z,-0.31
2023-03-25T05:27:36.556Z,-0.28
2023-03-25T05:30:05.188Z,-0.27
2023-03-25T05:32:33.530Z,-0.26
2023-03-25T05:35:01.684Z,-0.32
2023-03-25T05:37:30.967Z,-0.29
2023-03-25T05:39:58.805Z,-0.26
2023-03-25T05:42:27.410Z,-0.15
2023-03-25T05:44:55.489Z,-0.06
2023-03-25T05:47:25.301Z,-0.05
2023-03-25T05:49:54.467Z,-0.08
2023-03-25T05:52:24.596Z,-0.09
2023-03-25T05:54:54.053Z,-0.05
2023-03-25T05:57:21.858Z,-0.07
2023-03-25T05:59:49.611Z,-0.04
2023-03-25T06:02:18.435Z,-0.01
2023-03-25T06:04:47.305Z,-0.08
2023-03-25T06:07:19.965Z,-0.10
2023-03-25T06:09:48.371Z,-0.10
2023-03-25T06:12:19.887Z,-0.13
2023-03-25T06:14:48.451Z,-0.26
2023-03-25T06:17:19.011Z,-0.17
2023-03-25T06:19:47.342Z,-0.14
2023-03-25T06:22:15.713Z,-0.11
2023-03-25T06:24:43.964Z,-0.06
2023-03-25T06:27:15.768Z,-0.06
2023-03-25T06:29:45.675Z,-0.06
2023-03-25T06:32:15.538Z,-0.02
2023-03-25T06:34:44.806Z,0.02
2023-03-25T06:37:12.588Z,0.04
2023-03-25T06:39:40.336Z,0.09
2023-03-25T06:42:08.382Z,0.13
2023-03-25T06:44:36.232Z,0.19
2023-03-25T06:47:06.687Z,0.29
2023-03-25T06:49:34.548Z,0.38
2023-03-25T06:52:02.270Z,0.30
2023-03-25T06:54:30.748Z,0.34
2023-03-25T06:56:58.528Z,0.42
2023-03-25T06:59:26.356Z,0.52
2023-03-25T07:01:54.393Z,0.60
2023-03-25T07:04:23.587Z,0.61
2023-03-25T07:06:51.389Z,0.51
2023-03-25T07:09:19.176Z,0.68
2023-03-25T07:11:47.179Z,0.65
2023-03-25T07:14:14.981Z,0.60
2023-03-25T07:16:42.822Z,0.67
2023-03-25T07:19:10.899Z,0.70
2023-03-25T07:21:40.054Z,0.72
2023-03-25T07:24:08.387Z,0.69
2023-03-25T07:26:36.312Z,0.81
2023-03-25T07:29:04.475Z,0.83
2023-03-25T07:31:32.221Z,0.85
2023-03-25T07:34:00.831Z,0.88
2023-03-25T07:36:28.646Z,0.98
2023-03-25T07:38:57.796Z,1.03
2023-03-25T07:41:25.786Z,1.13
2023-03-25T07:43:53.554Z,0.92
2023-03-25T07:46:21.747Z,1.29
2023-03-25T07:48:49.675Z,1.18
2023-03-25T07:51:17.582Z,1.22
2023-03-25T07:53:46.440Z,1.06
2023-03-25T07:56:15.949Z,1.08
2023-03-25T07:58:44.483Z,1.12
2023-03-25T08:01:12.315Z,1.28
2023-03-25T08:03:40.379Z,1.34
2023-03-25T08:06:09.722Z,1.08
2023-03-25T08:08:37.815Z,0.94
2023-03-25T08:11:06.164Z,0.91
2023-03-25T08:13:35.358Z,0.85
2023-03-25T08:16:03.092Z,1.06
2023-03-25T08:18:31.611Z,1.09
2023-03-25T08:20:59.366Z,0.97
2023-03-25T08:23:27.224Z,0.93
2023-03-25T08:25:55.821Z,0.97
2023-03-25T08:28:24.226Z,1.13
2023-03-25T08:30:55.495Z,1.06
2023-03-25T08:33:27.318Z,1.02
2023-03-25T08:35:58.488Z,0.75
2023-03-25T08:38:34.468Z,0.78
2023-03-25T08:41:04.202Z,0.84
2023-03-25T08:43:32.929Z,1.00
2023-03-25T08:46:02.134Z,0.95
2023-03-25T08:48:30.364Z,0.85
2023-03-25T08:50:58.740Z,0.93
2023-03-25T08:53:27.034Z,1.01
2023-03-25T08:56:02.051Z,1.33
2023-03-25T08:58:29.951Z,1.61
2023-03-25T09:00:58.849Z,1.70
2023-03-25T09:03:28.169Z,1.79
2023-03-25T09:05:56.000Z,1.72
2023-03-25T09:08:23.979Z,1.53
2023-03-25T09:10:51.850Z,1.33
2023-03-25T09:13:19.634Z,1.14
2023-03-25T09:15:47.736Z,1.02
2023-03-25T09:18:15.635Z,0.93
2023-03-25T09:20:47.699Z,0.75
2023-03-25T09:23:15.748Z,0.69
2023-03-25T09:25:44.428Z,0.64
2023-03-25T09:28:12.225Z,0.98
2023-03-25T09:30:40.036Z,1.03
2023-03-25T09:33:08.685Z,1.21
2023-03-25T09:35:36.542Z,1.41
2023-03-25T09:38:05.776Z,1.52
2023-03-25T09:40:33.598Z,1.37
2023-03-25T09:43:08.859Z,1.43
2023-03-25T09:45:38.860Z,1.30
2023-03-25T09:48:19.456Z,1.17
2023-03-25T09:50:49.058Z,1.24
2023-03-25T09:53:27.464Z,1.28
2023-03-25T09:55:57.851Z,1.07
2023-03-25T09:58:31.117Z,1.15
2023-03-25T10:01:07.010Z,1.26
2023-03-25T10:03:40.338Z,1.18
2023-03-25T10:06:14.674Z,1.01
2023-03-25T10:09:00.624Z,1.20
2023-03-25T10:11:40.163Z,1.13
2023-03-25T10:14:12.600Z,0.99
2023-03-25T10:16:50.906Z,1.12
2023-03-25T10:19:30.020Z,1.14
2023-03-25T10:22:04.685Z,1.00
2023-03-25T10:24:39.251Z,1.11
2023-03-25T10:27:15.641Z,1.20
2023-03-25T10:29:50.828Z,1.19
2023-03-25T10:32:24.102Z,1.01
2023-03-25T10:34:56.108Z,1.00
2023-03-25T10:37:29.788Z,0.83
2023-03-25T10:40:08.958Z,0.66
2023-03-25T10:42:41.375Z,0.79
2023-03-25T10:45:14.216Z,0.86
2023-03-25T10:47:44.776Z,0.82
2023-03-25T10:50:16.915Z,0.70
2023-03-25T10:52:45.386Z,0.59
2023-03-25T10:55:25.281Z,0.52
2023-03-25T10:57:55.008Z,0.61
2023-03-25T11:00:26.321Z,0.64
2023-03-25T11:02:55.171Z,0.71
2023-03-25T11:05:28.277Z,0.54
2023-03-25T11:07:59.736Z,0.33
2023-03-25T11:10:32.420Z,0.36
2023-03-25T11:13:04.019Z,0.36
2023-03-25T11:15:34.858Z,0.38
2023-03-25T11:18:08.062Z,0.43
2023-03-25T11:20:39.629Z,0.39
2023-03-25T11:23:09.299Z,0.33
2023-03-25T11:25:43.579Z,0.31
2023-03-25T11:28:16.980Z,0.21
2023-03-25T11:31:14.055Z,0.16
2023-03-25T11:33:43.228Z,0.06
2023-03-25T11:36:14.064Z,0.05
2023-03-25T11:38:42.051Z,0.09
2023-03-25T11:41:14.593Z,0.04
2023-03-25T11:43:42.579Z,0.11
2023-03-25T11:46:12.624Z,0.08
2023-03-25T11:48:42.835Z,0.19
2023-03-25T11:51:15.432Z,0.24
2023-03-25T11:53:48.012Z,0.25
2023-03-25T11:56:22.461Z,0.22
2023-03-25T11:58:52.842Z,0.37
2023-03-25T12:01:27.957Z,0.34
2023-03-25T12:04:08.373Z,0.42
2023-03-25T12:06:36.571Z,0.59
2023-03-25T12:09:11.728Z,0.68
2023-03-25T12:11:46.781Z,0.98
2023-03-25T12:14:27.324Z,0.97
2023-03-25T12:17:05.469Z,0.79
2023-03-25T12:19:43.562Z,0.91
2023-03-25T12:22:26.635Z,0.87
2023-03-25T12:25:06.889Z,1.03
2023-03-25T12:27:46.237Z,1.18
2023-03-25T12:30:26.557Z,1.11
2023-03-25T12:33:05.126Z,1.01
2023-03-25T12:35:42.762Z,1.14
2023-03-25T12:38:23.098Z,1.14
2023-03-25T12:41:18.583Z,1.11
2023-03-25T12:43:59.534Z,1.05
2023-03-25T12:46:44.061Z,1.35
2023-03-25T12:49:27.952Z,1.59
2023-03-25T12:52:05.810Z,1.53
2023-03-25T12:54:46.395Z,1.31
2023-03-25T12:57:24.800Z,1.58
2023-03-25T13:00:09.126Z,1.35
2023-03-25T13:03:20.974Z,1.39
2023-03-25T13:05:55.634Z,1.58
2023-03-25T13:08:29.288Z,1.62
2023-03-25T13:11:02.697Z,1.58
2023-03-25T13:13:33.765Z,1.67
2023-03-25T13:16:09.340Z,1.50
2023-03-25T13:18:41.373Z,1.53
2023-03-25T13:21:15.578Z,1.50
2023-03-25T13:23:46.272Z,1.41
2023-03-25T13:26:18.742Z,1.42
2023-03-25T13:28:49.408Z,1.60
2023-03-25T13:31:23.318Z,1.24
2023-03-25T13:33:55.896Z,1.30
2023-03-25T13:36:29.381Z,1.42
2023-03-25T13:39:00.403Z,1.44
2023-03-25T13:41:35.428Z,1.53
2023-03-25T13:44:09.178Z,1.38
2023-03-25T13:46:42.257Z,1.41
2023-03-25T13:49:19.546Z,1.32
2023-03-25T13:51:47.985Z,1.34
2023-03-25T13:54:22.542Z,1.11
2023-03-25T13:57:16.040Z,0.92
2023-03-25T14:00:10.250Z,0.90
2023-03-25T14:02:58.169Z,1.06
2023-03-25T14:05:56.522Z,1.04
2023-03-25T14:08:50.683Z,0.99
2023-03-25T14:11:28.081Z,0.79
2023-03-25T14:14:01.647Z,0.91
2023-03-25T14:16:34.599Z,1.08
2023-03-25T14:19:08.186Z,1.16
2023-03-25T14:21:43.081Z,1.07
2023-03-25T14:24:15.111Z,1.14
2023-03-25T14:26:48.062Z,0.96
2023-03-25T14:29:26.251Z,1.18
2023-03-25T14:32:07.556Z,1.18
2023-03-25T14:34:40.610Z,1.07
2023-03-25T14:37:31.454Z,1.08
2023-03-25T14:40:07.315Z,1.07
2023-03-25T14:42:43.776Z,0.91
2023-03-25T14:45:42.780Z,0.92
2023-03-25T14:48:26.143Z,0.92
2023-03-25T14:51:20.888Z,1.00
2023-03-25T14:53:57.155Z,0.93
2023-03-25T14:56:27.311Z,0.84
2023-03-25T14:58:58.716Z,0.88
2023-03-25T15:01:34.609Z,0.91
2023-03-25T15:04:15.565Z,0.96
2023-03-25T15:06:46.096Z,1.03
2023-03-25T15:09:19.375Z,0.93
2023-03-25T15:11:56.515Z,0.85
2023-03-25T15:14:29.765Z,0.86
2023-03-25T15:17:01.965Z,0.70
2023-03-25T15:19:29.952Z,0.71
2023-03-25T15:22:22.398Z,0.64
2023-03-25T15:24:59.594Z,0.58
2023-03-25T15:28:01.762Z,0.63
2023-03-25T15:30:51.826Z,0.57
2023-03-25T15:33:36.803Z,0.53
2023-03-25T15:36:25.008Z,0.50
2023-03-25T15:39:09.444Z,0.37
2023-03-25T15:42:15.677Z,0.27
2023-03-25T15:45:24.973Z,0.16
2023-03-25T15:48:28.798Z,0.23
2023-03-25T15:51:10.872Z,0.24
2023-03-25T15:54:03.561Z,0.26
2023-03-25T15:56:35.105Z,0.25
2023-03-25T15:59:07.082Z,0.05
2023-03-25T16:01:39.233Z,0.29
2023-03-25T16:04:16.617Z,0.21
2023-03-25T16:06:48.463Z,0.11
2023-03-25T16:09:21.348Z,0.13
2023-03-25T16:11:59.246Z,0.06
2023-03-25T16:14:31.552Z,0.10
2023-03-25T16:17:02.282Z,0.16
2023-03-25T16:19:36.140Z,0.13
2023-03-25T16:22:08.408Z,0.23
2023-03-25T16:24:37.594Z,0.21
2023-03-25T16:27:11.487Z,-0.05
2023-03-25T16:29:41.393Z,0.22
2023-03-25T16:32:19.729Z,0.18
2023-03-25T16:34:47.868Z,0.14
2023-03-25T16:37:17.996Z,0.14
2023-03-25T16:39:53.482Z,-0.03
2023-03-25T16:42:27.222Z,-0.08
2023-03-25T16:44:55.596Z,-0.16
2023-03-25T16:47:24.415Z,-0.21
2023-03-25T16:49:56.209Z,-0.19
2023-03-25T16:52:28.073Z,-0.20
2023-03-25T16:55:32.060Z,-0.17
2023-03-25T16:58:02.907Z,-0.26
2023-03-25T17:00:44.021Z,-0.19
2023-03-25T17:03:21.198Z,-0.19
2023-03-25T17:05:59.494Z,-0.22
2023-03-25T17:08:28.644Z,-0.21
2023-03-25T17:11:00.440Z,-0.48
2023-03-25T17:13:32.753Z,-0.28
2023-03-25T17:16:01.161Z,-0.32
2023-03-25T17:18:32.745Z,-0.38
2023-03-25T17:21:01.978Z,-0.47
2023-03-25T17:23:36.465Z,-0.40
2023-03-25T17:26:08.234Z,-0.52
2023-03-25T17:28:39.288Z,-0.52
2023-03-25T17:31:33.155Z,-0.54
2023-03-25T17:34:05.420Z,-0.57
2023-03-25T17:36:35.518Z,-0.58
2023-03-25T17:39:06.015Z,-0.66
2023-03-25T17:41:40.113Z,-0.65
2023-03-25T17:44:08.624Z,-0.65
2023-03-25T17:46:36.567Z,-0.62
2023-03-25T17:49:15.095Z,-0.61
2023-03-25T17:51:43.023Z,-0.62
2023-03-25T17:54:11.378Z,-0.67
2023-03-25T17:56:42.740Z,-0.64
2023-03-25T17:59:16.963Z,-0.64
2023-03-25T18:01:46.376Z,-0.69
2023-03-25T18:04:15.504Z,-0.67
2023-03-25T18:06:43.510Z,-0.66
2023-03-25T18:09:17.418Z,-0.78
2023-03-25T18:11:48.285Z,-0.86
2023-03-25T18:14:16.446Z,-0.82
2023-03-25T18:16:44.266Z,-0.80
2023-03-25T18:19:16.658Z,-0.79
2023-03-25T18:21:44.791Z,-0.74
2023-03-25T18:24:13.508Z,-0.86
2023-03-25T18:26:42.218Z,-0.76
2023-03-25T18:29:13.652Z,-0.79
2023-03-25T18:31:41.475Z,-0.84
2023-03-25T18:34:11.247Z,-0.87
2023-03-25T18:36:40.301Z,-0.89
2023-03-25T18:39:12.686Z,-0.92
2023-03-25T18:41:40.642Z,-0.95
2023-03-25T18:44:08.508Z,-0.99
2023-03-25T18:46:38.170Z,-0.93
2023-03-25T18:49:12.118Z,-0.97
2023-03-25T18:51:39.947Z,-1.04
2023-03-25T18:54:07.752Z,-1.07
2023-03-25T18:56:35.877Z,-1.09
2023-03-25T18:59:04.356Z,-1.00
2023-03-25T19:01:32.446Z,-0.98
2023-03-25T19:04:03.303Z,-0.98
2023-03-25T19:06:32.149Z,-0.96
2023-03-25T19:09:00.074Z,-1.03
2023-03-25T19:11:30.603Z,-1.06
2023-03-25T19:13:59.248Z,-1.11
2023-03-25T19:16:27.063Z,-1.16
2023-03-25T19:18:54.796Z,-1.13
2023-03-25T19:21:24.157Z,-1.09
2023-03-25T19:23:52.832Z,-1.15
2023-03-25T19:26:20.744Z,-1.15
2023-03-25T19:28:48.538Z,-1.16
2023-03-25T19:31:16.681Z,-1.17
2023-03-25T19:33:44.562Z,-1.12
2023-03-25T19:36:15.459Z,-1.12
2023-03-25T19:38:44.724Z,-1.12
2023-03-25T19:41:15.495Z,-1.14
2023-03-25T19:43:43.388Z,-1.17
2023-03-25T19:46:11.612Z,-1.16
2023-03-25T19:48:40.356Z,-1.23
2023-03-25T19:51:08.349Z,-1.26
2023-03-25T19:53:37.529Z,-1.22
2023-03-25T19:56:07.248Z,-1.21
2023-03-25T19:58:35.610Z,-1.25
2023-03-25T20:01:05.158Z,-1.25
2023-03-25T20:03:33.108Z,-1.31
2023-03-25T20:06:02.648Z,-1.37
2023-03-25T20:08:32.006Z,-1.41
2023-03-25T20:11:00.958Z,-1.47
2023-03-25T20:13:32.077Z,-1.58
2023-03-25T20:15:59.863Z,-1.31
2023-03-25T20:18:28.163Z,-1.38
2023-03-25T20:20:56.046Z,-1.40
2023-03-25T20:23:23.853Z,-1.32
2023-03-25T20:25:52.588Z,-1.34
2023-03-25T20:28:20.535Z,-1.44
2023-03-25T20:30:49.732Z,-1.39
2023-03-25T20:33:17.862Z,-1.43
2023-03-25T20:35:46.113Z,-1.43
2023-03-25T20:38:14.283Z,-1.48
2023-03-25T20:40:44.848Z,-1.53
2023-03-25T20:43:14.279Z,-1.51
2023-03-25T20:45:42.820Z,-1.53
2023-03-25T20:48:12.136Z,-1.53
2023-03-25T20:50:40.582Z,-1.53
2023-03-25T20:53:08.987Z,-1.54
2023-03-25T20:55:37.417Z,-1.49
2023-03-25T20:58:05.938Z,-1.52
2023-03-25T21:00:34.195Z,-1.56
2023-03-25T21:03:03.151Z,-1.59
2023-03-25T21:05:32.817Z,-1.59
2023-03-25T21:08:00.673Z,-1.65
2023-03-25T21:10:28.542Z,-1.63
2023-03-25T21:12:56.487Z,-1.60
2023-03-25T21:15:24.388Z,-1.57
2023-03-25T21:17:54.413Z,-1.55
2023-03-25T21:20:24.009Z,-1.60
2023-03-25T21:22:57.053Z,-1.60
2023-03-25T21:25:25.130Z,-1.65
2023-03-25T21:27:54.040Z,-1.63
2023-03-25T21:30:22.018Z,-1.66
2023-03-25T21:32:49.858Z,-1.70
2023-03-25T21:35:17.888Z,-1.70
2023-03-25T21:37:47.043Z,-1.73
2023-03-25T21:40:16.999Z,-1.74
2023-03-25T21:42:46.067Z,-1.69
2023-03-25T21:45:16.503Z,-1.68
2023-03-25T21:47:45.293Z,-1.67
2023-03-25T21:50:14.562Z,-1.63
2023-03-25T21:52:46.715Z,-1.67
2023-03-25T21:55:17.597Z,-1.72
2023-03-25T21:57:47.796Z,-1.70
2023-03-25T22:00:18.632Z,-1.68
2023-03-25T22:02:48.210Z,-1.69
2023-03-25T22:05:17.596Z,-1.67
2023-03-25T22:07:46.101Z,-1.80
2023-03-25T22:10:13.881Z,-1.83
2023-03-25T22:12:42.985Z,-1.84
2023-03-25T22:15:11.985Z,-1.84
2023-03-25T22:17:39.921Z,-1.76
2023-03-25T22:20:10.178Z,-1.78
2023-03-25T22:22:38.262Z,-1.74
2023-03-25T22:25:07.078Z,-1.79
2023-03-25T22:27:34.816Z,-1.79
2023-03-25T22:30:04.626Z,-1.72
2023-03-25T22:32:35.346Z,-2.03
2023-03-25T22:35:04.076Z,-1.92
2023-03-25T22:37:32.309Z,-1.83
2023-03-25T22:40:00.095Z,-1.81
2023-03-25T22:42:29.617Z,-1.83
2023-03-25T22:44:57.433Z,-1.83
2023-03-25T22:47:26.585Z,-1.85
2023-03-25T22:49:54.399Z,-1.86
2023-03-25T22:52:22.407Z,-1.87
2023-03-25T22:54:50.202Z,-1.91
2023-03-25T22:57:19.020Z,-1.99
2023-03-25T22:59:46.993Z,-1.87
2023-03-25T23:02:16.606Z,-1.82
2023-03-25T23:04:46.264Z,-1.79
2023-03-25T23:07:14.503Z,-1.83
2023-03-25T23:09:42.752Z,-1.80
2023-03-25T23:12:12.226Z,-1.85
2023-03-25T23:14:41.665Z,-1.81
2023-03-25T23:17:11.981Z,-1.84
2023-03-25T23:19:41.574Z,-1.80
2023-03-25T23:22:10.806Z,-1.90
2023-03-25T23:24:39.095Z,-1.88
2023-03-25T23:27:08.456Z,-1.93
2023-03-25T23:29:39.154Z,-1.92
2023-03-25T23:32:08.939Z,-1.95
2023-03-25T23:34:38.360Z,-1.88
2023-03-25T23:37:09.202Z,-1.88
2023-03-25T23:39:40.332Z,-1.94
2023-03-25T23:42:08.666Z,-1.91
2023-03-25T23:44:37.275Z,-1.85
2023-03-25T23:47:06.120Z,-1.85
2023-03-25T23:49:38.152Z,-1.86
2023-03-25T23:52:11.029Z,-1.92
2023-03-25T23:54:40.762Z,-1.95
2023-03-25T23:57:08.661Z,-1.97
2023-03-25T23:59:36.562Z,-1.93
